Terminal Aerodrome Forecast
Issued by NWS Grand Forks, ND

Home | Current Version | Previous Version | Graphics & Text | Print | Product List | Glossary On
Versions: 1 2 3 4 5 6 7 8 9 10 11 12 13 14 15 16 17 18
000
FTUS43 KFGF 221700
TAFFAR
TAF
KFAR 221727Z 2218/2318 10010KT 3SM -RA BR OVC005
     FM222100 09010KT 1SM -RA BR OVC003
     FM230000 07010KT 2SM -RASN BR OVC004
     FM230300 04009KT 1 1/2SM -SN OVC004
     FM231000 01009KT 2SM -SN OVC005=

USA.gov is the U.S. government's official web portal to all federal, state and local government web resources and services.